createdAt,value
2019-03-04T00:01:28.311Z,13.00
2019-03-04T00:03:59.117Z,13.10
2019-03-04T00:06:29.783Z,13.10
2019-03-04T00:09:00.578Z,13.30
2019-03-04T00:11:32.821Z,13.10
2019-03-04T00:14:03.882Z,13.00
2019-03-04T00:16:34.561Z,13.10
2019-03-04T00:19:05.318Z,13.20
2019-03-04T00:21:36.070Z,13.20
2019-03-04T00:24:07.017Z,13.20
2019-03-04T00:26:40.768Z,13.20
2019-03-04T00:29:11.504Z,13.10
2019-03-04T00:31:42.305Z,13.10
2019-03-04T00:34:13.073Z,13.10
2019-03-04T00:36:43.867Z,13.20
2019-03-04T00:39:14.847Z,13.20
2019-03-04T00:41:45.594Z,13.10
2019-03-04T00:44:17.374Z,13.10
2019-03-04T00:46:49.169Z,13.10
2019-03-04T00:49:19.879Z,13.20
2019-03-04T00:51:50.609Z,13.20
2019-03-04T00:54:21.487Z,13.30
2019-03-04T00:56:52.259Z,13.20
2019-03-04T00:59:22.970Z,13.30
2019-03-04T01:01:53.709Z,13.30
2019-03-04T01:04:24.386Z,13.30
2019-03-04T01:06:55.420Z,13.30
2019-03-04T01:09:27.805Z,13.40
2019-03-04T01:11:58.665Z,13.30
2019-03-04T01:14:29.337Z,13.30
2019-03-04T01:17:00.093Z,13.20
2019-03-04T01:19:30.814Z,13.10
2019-03-04T01:22:01.575Z,13.20
2019-03-04T01:24:32.310Z,13.20
2019-03-04T01:27:04.536Z,13.30
2019-03-04T01:29:35.175Z,13.30
2019-03-04T01:32:05.898Z,13.20
2019-03-04T01:34:36.774Z,13.10
2019-03-04T01:37:09.320Z,13.10
2019-03-04T01:39:40.082Z,13.20
2019-03-04T01:42:10.825Z,13.20
2019-03-04T01:44:41.490Z,13.20
2019-03-04T01:47:12.242Z,13.20
2019-03-04T01:49:42.910Z,13.20
2019-03-04T02:08:16.991Z,13.30
2019-03-04T02:10:48.745Z,13.20
2019-03-04T02:13:19.487Z,13.10
2019-03-04T02:15:50.285Z,13.10
2019-03-04T02:18:22.458Z,13.10
2019-03-04T02:20:54.582Z,13.10
2019-03-04T02:23:25.370Z,13.00
2019-03-04T02:26:25.489Z,13.00
2019-03-04T02:28:56.618Z,13.00
2019-03-04T02:31:28.396Z,13.00
2019-03-04T02:33:59.172Z,13.00
2019-03-04T02:36:30.751Z,12.90
2019-03-04T02:39:05.016Z,12.90
2019-03-04T02:41:38.867Z,12.90
2019-03-04T02:44:10.126Z,12.90
2019-03-04T02:46:40.930Z,12.90
2019-03-04T02:49:11.679Z,13.00
2019-03-04T02:51:42.422Z,12.90
2019-03-04T02:54:13.187Z,12.80
2019-03-04T02:56:43.942Z,12.90
2019-03-04T02:59:14.614Z,12.90
2019-03-04T03:01:45.267Z,12.90
2019-03-04T03:04:16.021Z,12.90
2019-03-04T03:06:46.827Z,12.90
2019-03-04T03:09:17.673Z,13.00
2019-03-04T03:11:48.685Z,13.10
2019-03-04T03:14:20.459Z,13.00
2019-03-04T03:16:51.206Z,13.00
2019-03-04T03:19:21.984Z,13.00
2019-03-04T03:21:52.718Z,13.00
2019-03-04T03:24:24.352Z,13.00
2019-03-04T03:26:55.175Z,12.90
2019-03-04T03:29:26.738Z,12.90
2019-03-04T03:31:57.547Z,12.80
2019-03-04T03:34:29.235Z,12.90
2019-03-04T03:37:01.658Z,12.80
2019-03-04T03:39:32.616Z,12.80
2019-03-04T03:42:03.605Z,12.80
2019-03-04T03:44:34.337Z,12.70
2019-03-04T03:47:04.995Z,12.70
2019-03-04T03:49:35.894Z,12.70
2019-03-04T03:52:06.873Z,12.60
2019-03-04T03:54:37.559Z,12.70
2019-03-04T03:57:08.306Z,12.70
2019-03-04T03:59:38.980Z,12.70
2019-03-04T04:02:09.703Z,12.80
2019-03-04T04:04:40.489Z,12.80
2019-03-04T04:07:11.231Z,12.70
2019-03-04T04:09:42.027Z,12.70
2019-03-04T04:12:12.873Z,12.70
2019-03-04T04:14:43.526Z,12.70
2019-03-04T04:17:14.201Z,12.70
2019-03-04T04:19:44.977Z,12.90
2019-03-04T04:22:17.280Z,12.80
2019-03-04T04:24:48.078Z,12.80
2019-03-04T04:27:18.832Z,12.80
2019-03-04T04:29:49.590Z,13.00
2019-03-04T04:32:20.328Z,12.80
2019-03-04T04:34:50.969Z,12.90
2019-03-04T04:37:21.833Z,12.80
2019-03-04T04:39:52.517Z,12.90
2019-03-04T04:42:23.246Z,12.80
2019-03-04T04:44:53.894Z,12.80
2019-03-04T04:47:24.671Z,12.60
2019-03-04T04:49:55.380Z,12.30
2019-03-04T04:52:26.524Z,12.30
2019-03-04T04:54:57.328Z,12.20
2019-03-04T04:57:30.196Z,12.00
2019-03-04T05:00:00.900Z,12.00
2019-03-04T05:02:31.882Z,12.00
2019-03-04T05:05:02.498Z,11.90
2019-03-04T05:07:33.423Z,11.90
2019-03-04T05:10:04.571Z,10.90
2019-03-04T05:12:35.272Z,9.90
2019-03-04T05:15:07.322Z,9.20
2019-03-04T05:17:39.696Z,8.80
2019-03-04T05:20:13.591Z,8.60
2019-03-04T05:22:44.815Z,8.50
2019-03-04T05:25:15.518Z,8.40
2019-03-04T05:27:46.551Z,8.40
2019-03-04T05:30:18.587Z,8.30
2019-03-04T05:32:49.284Z,8.20
2019-03-04T05:35:19.972Z,8.20
2019-03-04T05:37:50.863Z,8.10
2019-03-04T05:40:21.662Z,8.00
2019-03-04T05:42:53.006Z,8.10
2019-03-04T05:45:23.850Z,8.10
2019-03-04T05:47:54.575Z,7.90
2019-03-04T05:50:25.303Z,8.00
2019-03-04T05:52:56.011Z,8.00
2019-03-04T05:55:26.667Z,8.20
2019-03-04T05:57:57.374Z,8.20
2019-03-04T06:00:30.395Z,8.20
2019-03-04T06:03:01.195Z,8.30
2019-03-04T06:05:51.889Z,8.60
2019-03-04T06:08:10.810Z,8.60
2019-03-04T06:10:41.930Z,8.60
2019-03-04T06:13:12.809Z,8.60
2019-03-04T06:15:43.518Z,8.50
2019-03-04T06:18:14.251Z,8.50
2019-03-04T06:20:45.286Z,8.50
2019-03-04T06:23:16.074Z,8.50
2019-03-04T06:25:46.903Z,8.60
2019-03-04T06:28:17.614Z,8.60
2019-03-04T06:30:49.331Z,8.70
2019-03-04T06:33:20.183Z,8.50
2019-03-04T06:35:50.962Z,8.40
2019-03-04T06:38:21.929Z,8.50
2019-03-04T06:40:52.960Z,8.40
2019-03-04T06:43:23.819Z,8.40
2019-03-04T06:45:54.814Z,8.40
2019-03-04T06:48:25.775Z,8.50
2019-03-04T06:50:58.136Z,8.60
2019-03-04T06:53:34.004Z,8.60
2019-03-04T06:56:31.706Z,8.60
2019-03-04T06:59:06.866Z,8.70
2019-03-04T07:01:46.008Z,8.70
2019-03-04T07:04:44.211Z,8.80
2019-03-04T07:07:15.017Z,9.00
2019-03-04T07:09:47.462Z,9.00
2019-03-04T07:12:18.420Z,9.00
2019-03-04T07:14:49.365Z,9.10
2019-03-04T07:17:20.230Z,9.00
2019-03-04T07:20:03.356Z,8.80
2019-03-04T07:22:35.297Z,9.00
2019-03-04T07:25:06.657Z,9.00
2019-03-04T07:27:37.399Z,9.00
2019-03-04T07:30:09.557Z,9.00
2019-03-04T07:32:40.987Z,9.00
2019-03-04T07:35:11.995Z,9.10
2019-03-04T07:37:42.751Z,9.00
2019-03-04T07:40:16.319Z,9.00
2019-03-04T07:42:46.847Z,8.90
2019-03-04T07:45:17.646Z,8.90
2019-03-04T07:47:50.287Z,8.90
2019-03-04T07:50:21.160Z,8.80
2019-03-04T07:52:57.703Z,8.90
2019-03-04T07:55:28.501Z,8.90
2019-03-04T07:57:59.861Z,8.80
2019-03-04T08:00:31.026Z,8.80
2019-03-04T08:03:01.797Z,8.70
2019-03-04T08:05:34.008Z,8.60
2019-03-04T08:08:04.823Z,8.40
2019-03-04T08:11:12.097Z,8.40
2019-03-04T08:13:46.726Z,8.20
2019-03-04T08:16:17.535Z,7.80
2019-03-04T08:18:48.377Z,7.60
2019-03-04T08:21:19.118Z,7.30
2019-03-04T08:23:50.000Z,7.20
2019-03-04T08:26:20.797Z,7.10
2019-03-04T08:28:51.611Z,7.10
2019-03-04T08:31:22.467Z,6.80
2019-03-04T08:33:53.322Z,6.60
2019-03-04T08:36:25.713Z,6.50
2019-03-04T08:38:56.468Z,6.50
2019-03-04T08:41:27.198Z,6.40
2019-03-04T08:44:00.021Z,6.40
2019-03-04T08:46:30.723Z,6.30
2019-03-04T08:49:01.416Z,6.30
2019-03-04T08:51:33.176Z,6.30
2019-03-04T08:54:03.941Z,6.30
2019-03-04T08:56:34.562Z,6.30
2019-03-04T08:59:05.286Z,6.30
2019-03-04T09:01:35.973Z,6.30
2019-03-04T09:04:06.757Z,6.40
2019-03-04T09:06:37.472Z,6.40
2019-03-04T09:09:08.506Z,6.50
2019-03-04T09:11:39.402Z,6.40
2019-03-04T09:14:10.209Z,6.60
2019-03-04T09:16:41.439Z,6.50
2019-03-04T09:19:13.734Z,6.60
2019-03-04T09:21:44.483Z,6.70
2019-03-04T09:24:15.224Z,6.80
2019-03-04T09:26:45.954Z,6.80
2019-03-04T09:29:17.852Z,6.70
2019-03-04T09:31:48.661Z,6.80
2019-03-04T09:34:21.024Z,6.80
2019-03-04T09:36:51.792Z,6.90
2019-03-04T09:39:22.585Z,6.90
2019-03-04T09:41:56.886Z,6.90
2019-03-04T09:44:27.524Z,6.90
2019-03-04T09:46:58.379Z,7.00
2019-03-04T09:49:29.162Z,7.10
2019-03-04T09:51:59.903Z,7.20
2019-03-04T09:54:30.726Z,7.40
2019-03-04T09:57:01.465Z,7.70
2019-03-04T09:59:33.213Z,8.00
2019-03-04T10:02:10.624Z,8.30
2019-03-04T10:05:15.811Z,8.40
2019-03-04T10:08:35.375Z,8.30
2019-03-04T10:11:54.638Z,8.30
2019-03-04T10:15:21.087Z,8.10
2019-03-04T10:18:11.066Z,8.00
2019-03-04T10:21:29.497Z,8.10
2019-03-04T10:24:50.395Z,8.10
2019-03-04T10:27:50.332Z,8.10
2019-03-04T10:31:00.602Z,8.10
2019-03-04T10:34:16.731Z,8.10
2019-03-04T10:37:22.849Z,8.10
2019-03-04T10:40:34.194Z,8.00
2019-03-04T10:43:54.962Z,8.20
2019-03-04T10:46:54.626Z,8.50
2019-03-04T10:49:26.853Z,8.60
2019-03-04T10:51:57.537Z,8.70
2019-03-04T10:54:28.176Z,8.70
2019-03-04T10:56:58.856Z,8.70
2019-03-04T10:59:29.561Z,8.90
2019-03-04T11:02:00.290Z,9.40
2019-03-04T11:04:31.035Z,9.60
2019-03-04T11:07:01.771Z,9.70
2019-03-04T11:09:32.519Z,9.70
2019-03-04T11:12:03.287Z,9.90
2019-03-04T11:14:34.990Z,10.00
2019-03-04T11:17:05.696Z,9.90
2019-03-04T11:19:36.607Z,9.80
2019-03-04T11:22:07.361Z,9.70
2019-03-04T11:24:38.100Z,9.40
2019-03-04T11:27:08.815Z,9.20
2019-03-04T11:29:40.598Z,9.00
2019-03-04T11:32:11.295Z,8.90
2019-03-04T11:34:42.765Z,9.00
2019-03-04T11:37:13.523Z,8.90
2019-03-04T11:39:56.457Z,8.80
2019-03-04T11:42:27.061Z,8.80
2019-03-04T11:44:57.832Z,8.90
2019-03-04T11:47:28.527Z,9.00
2019-03-04T11:49:59.319Z,9.10
2019-03-04T11:52:30.030Z,9.40
2019-03-04T11:55:02.297Z,10.30
2019-03-04T11:57:33.204Z,10.90
2019-03-04T12:00:06.042Z,11.10
2019-03-04T12:02:39.372Z,10.90
2019-03-04T12:05:10.868Z,10.50
2019-03-04T12:07:41.559Z,9.90
2019-03-04T12:10:13.143Z,9.80
2019-03-04T12:12:43.858Z,10.30
2019-03-04T12:15:15.799Z,10.00
2019-03-04T12:17:46.575Z,9.80
2019-03-04T12:20:17.808Z,10.00
2019-03-04T12:22:48.645Z,10.60
2019-03-04T12:25:19.470Z,10.90
2019-03-04T12:27:50.190Z,11.00
2019-03-04T12:30:20.923Z,10.90
2019-03-04T12:32:52.210Z,10.70
2019-03-04T12:35:23.123Z,11.30
2019-03-04T12:37:53.827Z,11.30
2019-03-04T12:40:24.656Z,10.70
2019-03-04T12:42:55.305Z,11.40
2019-03-04T12:45:33.972Z,11.70
2019-03-04T12:47:59.534Z,12.10
2019-03-04T12:50:30.275Z,12.40
2019-03-04T12:53:00.987Z,13.10
2019-03-04T12:55:32.647Z,14.10
2019-03-04T12:58:03.391Z,14.30
2019-03-04T13:00:34.255Z,14.70
2019-03-04T13:03:05.066Z,14.30
2019-03-04T13:05:38.225Z,13.80
2019-03-04T13:08:08.986Z,14.30
2019-03-04T13:10:39.742Z,15.10
2019-03-04T13:13:10.458Z,16.20
2019-03-04T13:15:41.205Z,16.40
2019-03-04T13:18:16.305Z,15.40
2019-03-04T13:20:46.378Z,15.10
2019-03-04T13:23:17.079Z,15.70
2019-03-04T13:25:48.479Z,15.00
2019-03-04T13:28:19.263Z,14.60
2019-03-04T13:30:50.014Z,14.90
2019-03-04T13:33:20.783Z,16.20
2019-03-04T13:35:51.533Z,16.40
2019-03-04T13:38:24.241Z,16.20
2019-03-04T13:40:54.975Z,15.70
2019-03-04T13:43:25.860Z,15.00
2019-03-04T13:45:56.965Z,14.90
2019-03-04T13:48:29.243Z,14.70
2019-03-04T13:51:00.094Z,14.40
2019-03-04T13:53:30.816Z,14.60
2019-03-04T13:56:01.552Z,15.00
2019-03-04T13:58:32.269Z,13.80
2019-03-04T14:01:03.130Z,14.30
2019-03-04T14:03:33.932Z,15.10
2019-03-04T14:06:04.718Z,14.30
2019-03-04T14:08:37.036Z,14.70
2019-03-04T14:11:09.027Z,14.90
2019-03-04T14:13:39.923Z,14.90
2019-03-04T14:16:11.361Z,15.00
2019-03-04T14:18:43.591Z,15.30
2019-03-04T14:21:14.864Z,15.40
2019-03-04T14:23:45.622Z,15.60
2019-03-04T14:26:16.472Z,16.10
2019-03-04T14:28:47.229Z,15.00
2019-03-04T14:31:18.034Z,15.30
2019-03-04T14:33:48.704Z,15.90
2019-03-04T14:36:19.419Z,15.70
2019-03-04T14:38:50.305Z,15.80
2019-03-04T14:41:21.118Z,16.60
2019-03-04T14:43:51.958Z,16.10
2019-03-04T14:46:26.109Z,14.90
2019-03-04T14:48:57.013Z,13.80
2019-03-04T14:51:27.832Z,13.30
2019-03-04T14:53:59.670Z,13.20
2019-03-04T14:56:30.405Z,14.20
2019-03-04T14:59:10.525Z,13.50
2019-03-04T15:01:34.389Z,12.90
2019-03-04T15:04:05.338Z,13.10
2019-03-04T15:06:36.111Z,12.30
2019-03-04T15:09:10.290Z,11.80
2019-03-04T15:11:41.106Z,11.50
2019-03-04T15:14:11.852Z,11.30
2019-03-04T15:16:42.843Z,11.60
2019-03-04T15:19:13.619Z,12.40
2019-03-04T15:21:45.992Z,13.60
2019-03-04T15:24:17.570Z,13.30
2019-03-04T15:26:48.350Z,13.30
2019-03-04T15:29:19.556Z,12.50
2019-03-04T15:31:51.990Z,12.30
2019-03-04T15:34:23.685Z,11.40
2019-03-04T15:36:55.220Z,10.70
2019-03-04T15:39:31.627Z,10.40
2019-03-04T15:42:02.585Z,10.10
2019-03-04T15:44:33.848Z,9.80
2019-03-04T15:47:04.615Z,10.30
2019-03-04T15:49:35.395Z,10.70
2019-03-04T15:52:06.871Z,10.70
2019-03-04T15:54:39.767Z,11.20
2019-03-04T15:57:12.883Z,11.70
2019-03-04T15:59:44.970Z,12.00
2019-03-04T16:02:25.097Z,12.40
2019-03-04T16:04:57.527Z,12.90
2019-03-04T16:07:28.353Z,13.00
2019-03-04T16:09:59.107Z,12.10
2019-03-04T16:12:31.664Z,11.00
2019-03-04T16:15:02.658Z,10.40
2019-03-04T16:17:36.323Z,9.90
2019-03-04T16:20:15.935Z,9.50
2019-03-04T16:22:42.832Z,9.40
2019-03-04T16:25:13.408Z,9.20
2019-03-04T16:27:44.741Z,9.10
2019-03-04T16:30:17.588Z,9.00
2019-03-04T16:32:48.604Z,8.90
2019-03-04T16:35:19.704Z,8.90
2019-03-04T16:37:52.024Z,9.00
2019-03-04T16:40:22.779Z,8.90
2019-03-04T16:42:53.621Z,8.70
2019-03-04T16:45:24.579Z,8.80
2019-03-04T16:47:56.278Z,8.70
2019-03-04T16:50:27.162Z,8.60
2019-03-04T16:52:58.073Z,8.70
2019-03-04T16:55:31.182Z,8.70
2019-03-04T16:58:01.935Z,8.70
2019-03-04T17:00:32.772Z,8.60
2019-03-04T17:03:03.606Z,8.60
2019-03-04T17:05:34.389Z,8.60
2019-03-04T17:08:05.694Z,8.50
2019-03-04T17:10:36.496Z,8.40
2019-03-04T17:13:07.352Z,8.40
2019-03-04T17:15:38.380Z,8.40
2019-03-04T17:18:09.365Z,8.30
2019-03-04T17:20:40.053Z,8.30
2019-03-04T17:23:10.919Z,8.40
2019-03-04T17:25:41.709Z,8.40
2019-03-04T17:28:14.290Z,8.40
2019-03-04T17:30:45.311Z,8.30
2019-03-04T17:33:16.281Z,8.30
2019-03-04T17:35:48.130Z,8.20
2019-03-04T17:38:19.025Z,8.20
2019-03-04T17:40:49.811Z,8.20
2019-03-04T17:43:20.742Z,8.20
2019-03-04T17:45:51.646Z,8.10
2019-03-04T17:48:22.417Z,8.10
2019-03-04T17:50:53.247Z,8.20
2019-03-04T17:53:24.181Z,8.10
2019-03-04T17:55:54.962Z,8.10
2019-03-04T17:58:26.107Z,8.10
2019-03-04T18:00:57.210Z,8.10
2019-03-04T18:03:28.179Z,8.10
2019-03-04T18:06:00.639Z,8.20
2019-03-04T18:08:32.921Z,8.20
2019-03-04T18:11:04.349Z,8.20
2019-03-04T18:13:35.594Z,8.10
2019-03-04T18:16:09.019Z,8.10
2019-03-04T18:18:39.605Z,8.00
2019-03-04T18:21:12.219Z,8.10
2019-03-04T18:23:43.658Z,8.10
2019-03-04T18:26:21.408Z,8.10
2019-03-04T18:29:34.871Z,8.10
2019-03-04T18:32:26.113Z,8.10
2019-03-04T18:35:22.301Z,8.00
2019-03-04T18:38:24.907Z,8.00
2019-03-04T18:41:41.605Z,8.00
2019-03-04T18:44:49.062Z,8.00
2019-03-04T18:47:45.366Z,8.10
2019-03-04T18:50:16.426Z,8.00
2019-03-04T18:52:47.190Z,8.10
2019-03-04T18:55:18.040Z,8.10
2019-03-04T18:57:50.093Z,8.30
2019-03-04T19:00:23.798Z,8.30
2019-03-04T19:02:54.495Z,8.30
2019-03-04T19:05:25.668Z,8.20
2019-03-04T19:07:56.349Z,8.10
2019-03-04T19:10:27.299Z,8.20
2019-03-04T19:12:58.226Z,8.10
2019-03-04T19:15:29.018Z,8.20
2019-03-04T19:18:01.287Z,8.30
2019-03-04T19:20:32.272Z,8.40
2019-03-04T19:23:03.246Z,8.30
2019-03-04T19:25:34.072Z,8.40
2019-03-04T19:28:04.835Z,8.30
2019-03-04T19:30:35.704Z,8.20
2019-03-04T19:33:08.393Z,8.30
2019-03-04T19:35:39.326Z,8.30
2019-03-04T19:38:10.909Z,8.30
2019-03-04T19:40:42.151Z,8.10
2019-03-04T19:43:13.173Z,8.20
2019-03-04T19:45:44.279Z,8.10
2019-03-04T19:48:15.446Z,8.10
2019-03-04T19:50:46.334Z,8.20
2019-03-04T19:53:18.720Z,8.10
2019-03-04T19:55:49.867Z,8.10
2019-03-04T19:58:20.621Z,8.00
2019-03-04T20:00:51.670Z,8.00
2019-03-04T20:03:22.835Z,8.00
2019-03-04T20:05:53.772Z,8.00
2019-03-04T20:08:25.748Z,7.90
2019-03-04T20:10:56.528Z,8.00
2019-03-04T20:13:27.502Z,8.00
2019-03-04T20:15:59.222Z,7.90
2019-03-04T20:18:29.977Z,7.90
2019-03-04T20:21:00.783Z,7.90
2019-03-04T20:23:31.623Z,7.90
2019-03-04T20:26:03.980Z,7.90
2019-03-04T20:28:34.826Z,8.00
2019-03-04T20:31:07.130Z,8.00
2019-03-04T20:33:39.366Z,8.00
2019-03-04T20:36:11.149Z,8.00
2019-03-04T20:38:44.709Z,8.00
2019-03-04T20:41:15.549Z,7.90
2019-03-04T20:43:46.470Z,7.90
2019-03-04T20:46:17.946Z,8.10
2019-03-04T20:48:48.902Z,8.10
2019-03-04T20:51:19.756Z,8.10
2019-03-04T20:53:51.658Z,8.10
2019-03-04T20:56:22.433Z,8.00
2019-03-04T20:58:54.750Z,8.00
2019-03-04T21:01:26.618Z,8.00
2019-03-04T21:03:57.674Z,8.10
2019-03-04T21:06:28.483Z,8.00
2019-03-04T21:08:59.976Z,8.10
2019-03-04T21:11:33.198Z,8.10
2019-03-04T21:14:04.526Z,8.10
2019-03-04T21:16:35.375Z,8.10
2019-03-04T21:19:06.189Z,8.20
2019-03-04T21:21:37.038Z,8.20
2019-03-04T21:24:09.326Z,8.20
2019-03-04T21:26:43.400Z,8.20
2019-03-04T21:29:50.918Z,8.20
2019-03-04T21:32:52.230Z,8.20
2019-03-04T21:36:04.970Z,8.20
2019-03-04T21:38:35.920Z,8.20
2019-03-04T21:41:44.239Z,8.20
2019-03-04T21:45:15.632Z,8.20
2019-03-04T21:47:50.115Z,8.20
2019-03-04T21:50:25.439Z,8.30
2019-03-04T21:53:12.899Z,8.20
2019-03-04T21:56:20.143Z,8.20
2019-03-04T21:58:51.019Z,8.30
2019-03-04T22:01:26.401Z,8.30
2019-03-04T22:03:58.758Z,8.30
2019-03-04T22:06:31.218Z,8.30
2019-03-04T22:09:02.166Z,8.20
2019-03-04T22:11:34.893Z,8.20
2019-03-04T22:14:05.807Z,8.30
2019-03-04T22:16:36.662Z,8.40
2019-03-04T22:19:07.389Z,8.50
2019-03-04T22:21:38.252Z,8.50
2019-03-04T22:24:09.076Z,8.40
2019-03-04T22:26:39.810Z,8.50
2019-03-04T22:29:10.674Z,8.50
2019-03-04T22:31:41.487Z,8.40
2019-03-04T22:34:12.265Z,8.40
2019-03-04T22:36:43.373Z,8.30
2019-03-04T22:39:14.157Z,8.50
2019-03-04T22:41:45.037Z,8.40
2019-03-04T22:44:15.845Z,8.40
2019-03-04T22:46:46.732Z,8.30
2019-03-04T22:49:17.464Z,8.30
2019-03-04T22:51:48.224Z,8.20
2019-03-04T22:54:19.005Z,8.20
2019-03-04T22:56:49.783Z,8.20
2019-03-04T22:59:20.889Z,8.10
2019-03-04T23:02:04.901Z,8.10
2019-03-04T23:04:46.205Z,8.00
2019-03-04T23:07:25.414Z,8.10
2019-03-04T23:10:17.402Z,8.10
2019-03-04T23:13:13.991Z,8.00
2019-03-04T23:15:46.731Z,7.90
2019-03-04T23:18:17.549Z,8.00
2019-03-04T23:20:49.247Z,7.90
2019-03-04T23:23:19.924Z,7.80
2019-03-04T23:25:50.821Z,7.80
2019-03-04T23:28:21.630Z,7.70
2019-03-04T23:30:52.426Z,7.70
2019-03-04T23:33:24.663Z,7.60
2019-03-04T23:35:55.418Z,7.70
2019-03-04T23:38:26.061Z,7.80
2019-03-04T23:40:58.325Z,7.80
2019-03-04T23:43:29.186Z,7.70
2019-03-04T23:45:59.956Z,7.70
2019-03-04T23:48:30.746Z,7.80
2019-03-04T23:51:01.602Z,7.70
2019-03-04T23:53:32.828Z,7.60
2019-03-04T23:56:03.555Z,7.70
2019-03-04T23:58:34.349Z,7.70
